createdAt,value
2022-12-12T00:02:09.484Z,5.20
2022-12-12T00:04:20.952Z,5.50
2022-12-12T00:06:30.903Z,4.70
2022-12-12T00:08:41.150Z,5.10
2022-12-12T00:10:52.258Z,4.70
2022-12-12T00:13:02.539Z,5.40
2022-12-12T00:15:14.378Z,4.50
2022-12-12T00:17:24.790Z,4.80
2022-12-12T00:19:34.396Z,4.10
2022-12-12T00:21:44.549Z,4.30
2022-12-12T00:23:55.224Z,4.00
2022-12-12T00:28:15.590Z,3.50
2022-12-12T00:30:25.609Z,4.20
2022-12-12T00:32:35.480Z,4.10
2022-12-12T00:34:45.269Z,4.30
2022-12-12T00:36:55.946Z,4.10
2022-12-12T00:39:07.117Z,4.90
2022-12-12T00:41:16.970Z,4.50
2022-12-12T00:43:27.028Z,4.80
2022-12-12T00:45:37.001Z,4.60
2022-12-12T00:47:47.344Z,4.60
2022-12-12T00:49:56.946Z,4.90
2022-12-12T00:52:07.012Z,4.80
2022-12-12T00:54:17.079Z,4.70
2022-12-12T00:56:28.006Z,4.40
2022-12-12T00:58:38.217Z,3.80
2022-12-12T01:00:48.355Z,5.20
2022-12-12T01:03:00.247Z,9.50
2022-12-12T01:05:12.249Z,10.80
2022-12-12T01:09:29.898Z,9.20
2022-12-12T01:11:39.784Z,7.10
2022-12-12T01:13:50.786Z,6.70
2022-12-12T01:16:00.720Z,6.60
2022-12-12T01:18:11.285Z,5.90
2022-12-12T01:20:24.349Z,5.90
2022-12-12T01:22:34.535Z,6.60
2022-12-12T01:24:44.557Z,5.90
2022-12-12T01:26:54.186Z,5.20
2022-12-12T01:29:03.893Z,4.50
2022-12-12T01:31:14.290Z,4.40
2022-12-12T01:33:24.407Z,4.40
2022-12-12T01:35:34.960Z,3.70
2022-12-12T01:37:44.787Z,3.80
2022-12-12T01:39:54.663Z,4.60
2022-12-12T01:42:04.364Z,4.40
2022-12-12T01:44:45.244Z,3.50
2022-12-12T01:46:55.003Z,3.80
2022-12-12T01:49:08.743Z,4.10
2022-12-12T01:51:22.959Z,4.10
2022-12-12T01:53:35.262Z,4.20
2022-12-12T01:55:44.917Z,4.20
2022-12-12T01:57:57.547Z,3.50
2022-12-12T02:00:11.576Z,3.70
2022-12-12T02:02:21.423Z,4.80
2022-12-12T02:04:31.527Z,4.50
2022-12-12T02:06:42.745Z,4.90
2022-12-12T02:08:54.835Z,5.00
2022-12-12T02:13:15.047Z,4.30
2022-12-12T02:15:26.125Z,4.50
2022-12-12T02:18:03.724Z,4.40
2022-12-12T02:20:47.999Z,4.90
2022-12-12T02:23:20.826Z,5.10
2022-12-12T02:26:02.019Z,5.20
2022-12-12T02:28:41.151Z,6.30
2022-12-12T02:30:58.422Z,6.00
2022-12-12T02:33:28.795Z,6.90
2022-12-12T02:35:49.225Z,6.40
2022-12-12T02:38:08.576Z,6.80
2022-12-12T02:40:25.491Z,7.30
2022-12-12T02:42:44.305Z,7.70
2022-12-12T02:44:59.408Z,7.20
2022-12-12T02:47:14.682Z,7.20
2022-12-12T02:49:29.893Z,7.00
2022-12-12T02:51:41.214Z,6.70
2022-12-12T02:53:51.010Z,6.30
2022-12-12T02:56:09.728Z,8.30
2022-12-12T02:58:21.229Z,7.40
2022-12-12T03:00:37.109Z,6.80
2022-12-12T03:03:36.197Z,6.70
2022-12-12T03:06:13.854Z,5.60
2022-12-12T03:08:42.400Z,5.50
2022-12-12T03:10:59.765Z,5.40
2022-12-12T03:13:16.989Z,7.00
2022-12-12T03:15:32.275Z,5.70
2022-12-12T03:17:50.083Z,5.60
2022-12-12T03:20:07.001Z,5.80
2022-12-12T03:22:26.374Z,5.60
2022-12-12T03:24:42.054Z,6.90
2022-12-12T03:26:57.244Z,6.20
2022-12-12T03:29:11.076Z,6.80
2022-12-12T03:31:27.161Z,6.20
2022-12-12T03:33:41.390Z,6.20
2022-12-12T03:35:58.119Z,6.40
2022-12-12T03:38:14.720Z,6.40
2022-12-12T03:40:30.616Z,5.90
2022-12-12T03:42:45.703Z,5.60
2022-12-12T03:44:59.027Z,7.30
2022-12-12T03:47:14.417Z,8.00
2022-12-12T03:49:27.985Z,8.50
2022-12-12T03:51:41.958Z,8.20
2022-12-12T03:53:54.776Z,7.30
2022-12-12T03:56:09.531Z,6.60
2022-12-12T03:58:25.500Z,8.50
2022-12-12T04:00:37.762Z,8.10
2022-12-12T04:02:53.792Z,7.80
2022-12-12T04:05:12.422Z,7.10
2022-12-12T04:07:26.699Z,6.30
2022-12-12T04:09:54.325Z,6.80
2022-12-12T04:12:27.143Z,7.10
2022-12-12T04:14:57.170Z,7.00
2022-12-12T04:17:11.356Z,6.10
2022-12-12T04:19:41.973Z,6.60
2022-12-12T04:22:18.155Z,7.40
2022-12-12T04:24:44.604Z,6.90
2022-12-12T04:26:59.996Z,7.90
2022-12-12T04:29:16.396Z,9.30
2022-12-12T04:31:30.039Z,10.20
2022-12-12T04:33:48.149Z,13.60
2022-12-12T04:36:00.298Z,11.60
2022-12-12T04:38:13.272Z,10.70
2022-12-12T04:40:27.738Z,10.60
2022-12-12T04:42:40.979Z,10.10
2022-12-12T04:44:52.354Z,10.30
2022-12-12T04:47:03.126Z,9.20
2022-12-12T04:49:19.916Z,7.40
2022-12-12T04:51:33.685Z,7.80
2022-12-12T04:53:49.447Z,8.70
2022-12-12T04:56:01.511Z,7.90
2022-12-12T04:58:11.599Z,7.80
2022-12-12T05:00:22.578Z,7.90
2022-12-12T05:02:39.653Z,8.20
2022-12-12T05:04:54.533Z,7.70
2022-12-12T05:07:09.393Z,7.60
2022-12-12T05:09:20.789Z,7.40
2022-12-12T05:11:30.931Z,7.70
2022-12-12T05:13:42.942Z,7.30
2022-12-12T05:18:05.232Z,7.50
2022-12-12T05:20:15.526Z,7.30
2022-12-12T05:22:25.260Z,7.80
2022-12-12T05:24:35.331Z,8.20
2022-12-12T05:26:45.288Z,7.60
2022-12-12T05:28:55.354Z,8.80
2022-12-12T05:31:05.024Z,8.30
2022-12-12T05:33:14.894Z,8.50
2022-12-12T05:35:25.001Z,8.80
2022-12-12T05:37:34.795Z,8.50
2022-12-12T05:39:44.507Z,8.70
2022-12-12T05:41:54.373Z,8.80
2022-12-12T05:44:04.245Z,7.70
2022-12-12T05:46:13.890Z,7.90
2022-12-12T05:48:24.709Z,7.90
2022-12-12T05:50:34.363Z,7.90
2022-12-12T05:52:45.404Z,8.20
2022-12-12T05:54:55.312Z,9.40
2022-12-12T05:57:05.242Z,8.00
2022-12-12T05:59:15.234Z,8.30
2022-12-12T06:01:24.848Z,8.50
2022-12-12T06:03:34.808Z,7.80
2022-12-12T06:05:44.720Z,7.70
2022-12-12T06:07:54.605Z,7.50
2022-12-12T06:10:04.326Z,7.20
2022-12-12T06:12:14.729Z,7.30
2022-12-12T06:14:25.296Z,7.90
2022-12-12T06:16:37.311Z,6.80
2022-12-12T06:18:47.481Z,6.70
2022-12-12T06:21:05.869Z,8.10
2022-12-12T06:23:15.677Z,6.90
2022-12-12T06:25:25.687Z,7.00
2022-12-12T06:27:36.083Z,6.20
2022-12-12T06:29:46.501Z,6.90
2022-12-12T06:31:56.920Z,7.20
2022-12-12T06:34:06.723Z,7.70
2022-12-12T06:36:24.576Z,6.70
2022-12-12T06:38:35.360Z,7.60
2022-12-12T06:40:45.474Z,6.70
2022-12-12T06:42:55.304Z,7.40
2022-12-12T06:45:05.130Z,8.40
2022-12-12T06:47:15.106Z,7.40
2022-12-12T06:49:25.852Z,7.50
2022-12-12T06:51:37.647Z,7.20
2022-12-12T06:53:48.570Z,7.30
2022-12-12T06:55:58.298Z,7.50
2022-12-12T06:58:09.147Z,6.90
2022-12-12T07:00:20.699Z,7.20
2022-12-12T07:02:30.555Z,7.50
2022-12-12T07:04:40.339Z,7.20
2022-12-12T07:06:49.920Z,6.40
2022-12-12T07:09:03.453Z,6.80
2022-12-12T07:11:16.448Z,6.80
2022-12-12T07:13:29.204Z,7.00
2022-12-12T07:15:45.407Z,6.50
2022-12-12T07:17:57.110Z,6.70
2022-12-12T07:20:07.520Z,7.10
2022-12-12T07:22:17.582Z,7.50
2022-12-12T07:24:28.683Z,7.30
2022-12-12T07:26:38.390Z,6.90
2022-12-12T07:28:48.159Z,6.60
2022-12-12T07:30:57.757Z,6.10
2022-12-12T07:33:07.774Z,6.80
2022-12-12T07:35:17.639Z,6.80
2022-12-12T07:37:27.614Z,6.80
2022-12-12T07:39:37.891Z,7.40
2022-12-12T07:41:47.333Z,6.80
2022-12-12T07:43:57.164Z,6.10
2022-12-12T07:46:07.703Z,6.60
2022-12-12T07:48:18.002Z,7.30
2022-12-12T07:50:27.513Z,7.40
2022-12-12T07:52:37.274Z,6.60
2022-12-12T07:54:47.022Z,7.70
2022-12-12T07:56:56.785Z,7.20
2022-12-12T07:59:07.424Z,6.50
2022-12-12T08:01:20.312Z,7.20
2022-12-12T08:03:30.006Z,6.50
2022-12-12T08:05:43.021Z,7.30
2022-12-12T08:07:53.523Z,6.40
2022-12-12T08:10:03.277Z,6.50
2022-12-12T08:12:13.336Z,7.10
2022-12-12T08:14:22.986Z,6.20
2022-12-12T08:16:33.305Z,6.20
2022-12-12T08:18:44.081Z,5.90
2022-12-12T08:20:54.172Z,5.90
2022-12-12T08:23:04.786Z,6.50
2022-12-12T08:25:14.878Z,6.20
2022-12-12T08:27:25.202Z,5.60
2022-12-12T08:29:35.216Z,5.80
2022-12-12T08:31:45.293Z,6.20
2022-12-12T08:33:55.472Z,6.10
2022-12-12T08:36:15.974Z,6.70
2022-12-12T08:38:26.299Z,5.50
2022-12-12T08:40:36.717Z,5.20
2022-12-12T08:42:46.309Z,5.10
2022-12-12T08:44:56.369Z,5.80
2022-12-12T08:47:06.426Z,6.40
2022-12-12T08:49:16.657Z,5.30
2022-12-12T08:51:27.051Z,5.50
2022-12-12T08:53:36.785Z,5.50
2022-12-12T08:55:46.894Z,5.80
2022-12-12T08:57:56.881Z,5.80
2022-12-12T09:00:08.654Z,5.50
2022-12-12T09:02:18.406Z,5.10
2022-12-12T09:04:28.150Z,5.30
2022-12-12T09:06:37.650Z,4.70
2022-12-12T09:08:47.527Z,4.70
2022-12-12T09:10:57.563Z,4.60
2022-12-12T09:13:07.686Z,4.70
2022-12-12T09:15:18.069Z,5.00
2022-12-12T09:17:27.714Z,5.20
2022-12-12T09:19:38.395Z,5.20
2022-12-12T09:21:48.527Z,5.20
2022-12-12T09:23:58.125Z,4.40
2022-12-12T09:26:11.327Z,4.20
2022-12-12T09:28:22.690Z,4.50
2022-12-12T09:30:33.109Z,4.90
2022-12-12T09:32:45.476Z,5.00
2022-12-12T09:34:56.415Z,5.80
2022-12-12T09:37:06.675Z,5.90
2022-12-12T09:39:16.207Z,5.40
2022-12-12T09:41:29.020Z,5.60
2022-12-12T09:43:46.439Z,5.40
2022-12-12T09:45:56.593Z,4.60
2022-12-12T09:48:07.848Z,3.80
2022-12-12T09:50:23.785Z,4.30
2022-12-12T09:52:37.294Z,4.00
2022-12-12T09:54:47.235Z,4.60
2022-12-12T09:57:10.372Z,2.90
2022-12-12T09:59:29.543Z,4.00
2022-12-12T10:01:47.389Z,3.60
2022-12-12T10:04:14.556Z,3.60
2022-12-12T10:06:40.382Z,3.50
2022-12-12T10:09:08.415Z,3.50
2022-12-12T10:11:44.288Z,3.00
2022-12-12T10:13:54.582Z,3.50
2022-12-12T10:16:09.733Z,4.20
2022-12-12T10:18:24.791Z,3.30
2022-12-12T10:20:40.590Z,2.80
2022-12-12T10:22:54.127Z,3.50
2022-12-12T10:25:10.087Z,2.90
2022-12-12T10:27:20.325Z,3.10
2022-12-12T10:29:30.776Z,3.10
2022-12-12T10:31:49.955Z,2.50
2022-12-12T10:34:19.769Z,2.70
2022-12-12T10:36:40.484Z,2.90
2022-12-12T10:39:09.660Z,3.10
2022-12-12T10:41:30.636Z,3.10
2022-12-12T10:43:49.214Z,2.80
2022-12-12T10:46:15.892Z,2.80
2022-12-12T10:48:25.574Z,3.00
2022-12-12T10:50:39.039Z,2.50
2022-12-12T10:52:48.915Z,2.60
2022-12-12T10:55:01.187Z,3.20
2022-12-12T10:57:20.257Z,3.30
2022-12-12T10:59:32.698Z,2.80
2022-12-12T11:02:08.915Z,3.70
2022-12-12T11:04:16.057Z,3.30
2022-12-12T11:06:32.561Z,3.30
2022-12-12T11:08:53.838Z,2.60
2022-12-12T11:11:23.799Z,3.70
2022-12-12T11:13:34.774Z,3.40
2022-12-12T11:15:46.873Z,3.30
2022-12-12T11:20:16.163Z,2.50
2022-12-12T11:22:26.863Z,2.60
2022-12-12T11:24:40.289Z,3.00
2022-12-12T11:26:55.128Z,3.00
2022-12-12T11:29:07.175Z,2.50
2022-12-12T11:31:18.543Z,2.50
2022-12-12T11:33:35.306Z,2.50
2022-12-12T11:35:47.915Z,2.50
2022-12-12T11:38:02.413Z,2.40
2022-12-12T11:40:26.217Z,2.30
2022-12-12T11:42:36.716Z,2.10
2022-12-12T11:44:49.817Z,2.00
2022-12-12T11:47:17.110Z,1.90
2022-12-12T11:49:26.647Z,1.90
2022-12-12T11:51:38.825Z,2.10
2022-12-12T11:53:49.078Z,1.80
2022-12-12T11:56:18.688Z,2.30
2022-12-12T11:58:33.890Z,1.90
2022-12-12T12:00:54.556Z,2.40
2022-12-12T12:03:26.131Z,1.70
2022-12-12T12:05:46.524Z,1.50
2022-12-12T12:08:11.816Z,1.80
2022-12-12T12:10:29.305Z,1.50
2022-12-12T12:12:49.512Z,1.60
2022-12-12T12:15:21.598Z,1.60
2022-12-12T12:17:46.694Z,1.20
2022-12-12T12:20:08.203Z,1.30
2022-12-12T12:22:34.282Z,1.30
2022-12-12T12:25:07.618Z,1.20
2022-12-12T12:27:24.933Z,1.40
2022-12-12T12:30:08.399Z,1.20
2022-12-12T12:32:27.346Z,1.20
2022-12-12T12:34:46.171Z,1.30
2022-12-12T12:37:09.650Z,1.30
2022-12-12T12:39:31.876Z,1.50
2022-12-12T12:44:10.201Z,1.10
2022-12-12T12:46:31.564Z,1.60
2022-12-12T12:48:46.296Z,1.10
2022-12-12T12:51:05.393Z,1.40
2022-12-12T12:53:25.836Z,1.30
2022-12-12T12:55:42.134Z,1.20
2022-12-12T12:57:53.460Z,1.30
2022-12-12T13:00:07.037Z,1.20
2022-12-12T13:02:26.945Z,1.20
2022-12-12T13:04:46.103Z,1.50
2022-12-12T13:07:00.792Z,1.30
2022-12-12T13:09:26.308Z,1.10
2022-12-12T13:11:39.968Z,1.40
2022-12-12T13:13:54.003Z,1.30
2022-12-12T13:16:08.347Z,1.30
2022-12-12T13:18:19.262Z,1.50
2022-12-12T13:20:31.643Z,1.30
2022-12-12T13:22:50.692Z,1.40
2022-12-12T13:25:08.196Z,1.20
2022-12-12T13:27:22.660Z,1.10
2022-12-12T13:29:43.975Z,1.30
2022-12-12T13:32:26.270Z,1.30
2022-12-12T13:34:40.163Z,1.10
2022-12-12T13:36:52.340Z,1.10
2022-12-12T13:39:04.255Z,1.30
2022-12-12T13:41:13.977Z,1.30
2022-12-12T13:43:42.064Z,1.20
2022-12-12T13:45:51.977Z,1.10
2022-12-12T13:48:06.259Z,1.00
2022-12-12T13:50:24.417Z,1.20
2022-12-12T13:52:34.846Z,1.40
2022-12-12T13:54:49.810Z,1.60
2022-12-12T13:57:15.671Z,1.30
2022-12-12T13:59:55.065Z,1.80
2022-12-12T14:02:24.074Z,1.30
2022-12-12T14:04:36.170Z,1.20
2022-12-12T14:06:46.115Z,1.60
2022-12-12T14:08:58.313Z,1.40
2022-12-12T14:11:15.181Z,2.00
2022-12-12T14:13:40.425Z,1.30
2022-12-12T14:18:02.263Z,1.50
2022-12-12T14:20:26.239Z,2.00
2022-12-12T14:23:25.655Z,1.80
2022-12-12T14:25:38.233Z,1.40
2022-12-12T14:28:19.923Z,1.50
2022-12-12T14:30:40.083Z,1.90
2022-12-12T14:32:56.733Z,1.40
2022-12-12T14:35:25.530Z,1.30
2022-12-12T14:37:51.631Z,1.90
2022-12-12T14:40:06.236Z,2.00
2022-12-12T14:43:19.726Z,1.10
2022-12-12T14:44:58.596Z,1.80
2022-12-12T14:47:17.354Z,1.60
2022-12-12T14:49:27.238Z,1.40
2022-12-12T14:51:38.696Z,1.80
2022-12-12T14:53:52.594Z,1.80
2022-12-12T14:56:03.921Z,1.60
2022-12-12T14:58:13.585Z,1.80
2022-12-12T15:00:23.977Z,1.80
2022-12-12T15:02:39.328Z,2.20
2022-12-12T15:04:52.792Z,2.10
2022-12-12T15:07:03.221Z,2.60
2022-12-12T15:09:27.235Z,2.70
2022-12-12T15:11:37.019Z,2.50
2022-12-12T15:13:59.162Z,2.50
2022-12-12T15:16:09.685Z,2.60
2022-12-12T15:18:22.963Z,2.50
2022-12-12T15:20:34.243Z,3.10
2022-12-12T15:22:54.843Z,3.00
2022-12-12T15:25:16.480Z,2.60
2022-12-12T15:27:29.997Z,3.00
2022-12-12T15:29:43.153Z,2.70
2022-12-12T15:31:58.768Z,3.20
2022-12-12T15:34:29.944Z,2.60
2022-12-12T15:36:40.576Z,2.90
2022-12-12T15:39:13.793Z,3.00
2022-12-12T15:41:23.637Z,3.10
2022-12-12T15:43:34.827Z,3.30
2022-12-12T15:45:48.453Z,3.60
2022-12-12T15:47:59.307Z,3.20
2022-12-12T15:50:16.849Z,2.90
2022-12-12T15:52:31.366Z,2.60
2022-12-12T15:54:46.663Z,3.10
2022-12-12T15:56:57.095Z,3.00
2022-12-12T15:59:27.635Z,3.00
2022-12-12T16:01:38.716Z,3.20
2022-12-12T16:03:59.557Z,3.00
2022-12-12T16:06:19.773Z,2.90
2022-12-12T16:08:45.598Z,3.20
2022-12-12T16:10:58.152Z,3.20
2022-12-12T16:13:26.621Z,3.20
2022-12-12T16:15:39.748Z,2.90
2022-12-12T16:18:02.809Z,3.40
2022-12-12T16:20:16.121Z,3.60
2022-12-12T16:22:35.297Z,3.10
2022-12-12T16:24:52.109Z,2.70
2022-12-12T16:27:02.669Z,2.80
2022-12-12T16:29:12.612Z,3.00
2022-12-12T16:31:22.254Z,2.80
2022-12-12T16:33:34.567Z,3.10
2022-12-12T16:35:44.330Z,2.60
2022-12-12T16:37:54.503Z,2.60
2022-12-12T16:40:04.482Z,2.90
2022-12-12T16:42:17.938Z,2.80
2022-12-12T16:44:27.539Z,3.00
2022-12-12T16:46:37.294Z,4.10
2022-12-12T16:48:47.762Z,2.20
2022-12-12T16:51:02.862Z,2.50
2022-12-12T16:53:12.935Z,2.50
2022-12-12T16:55:25.375Z,2.10
2022-12-12T16:57:35.006Z,2.60
2022-12-12T16:59:46.288Z,2.30
2022-12-12T17:01:55.712Z,3.00
2022-12-12T17:04:05.595Z,2.40
2022-12-12T17:06:15.316Z,1.90
2022-12-12T17:08:25.489Z,2.30
2022-12-12T17:10:37.053Z,2.20
2022-12-12T17:12:47.300Z,2.50
2022-12-12T17:14:57.431Z,3.30
2022-12-12T17:17:07.286Z,2.60
2022-12-12T17:19:17.836Z,2.70
2022-12-12T17:21:27.379Z,2.40
2022-12-12T17:23:36.920Z,2.10
2022-12-12T17:25:48.957Z,2.40
2022-12-12T17:30:06.314Z,2.40
2022-12-12T17:32:20.189Z,1.90
2022-12-12T17:34:32.222Z,2.30
2022-12-12T17:36:41.944Z,2.10
2022-12-12T17:38:51.699Z,2.50
2022-12-12T17:41:04.513Z,2.40
2022-12-12T17:43:14.129Z,2.40
2022-12-12T17:45:24.010Z,2.50
2022-12-12T17:47:33.760Z,2.30
2022-12-12T17:49:44.103Z,1.80
2022-12-12T17:51:53.855Z,1.70
2022-12-12T17:54:03.645Z,1.70
2022-12-12T17:56:15.271Z,2.20
2022-12-12T17:58:29.606Z,1.90
2022-12-12T18:00:40.102Z,2.10
2022-12-12T18:02:49.886Z,2.00
2022-12-12T18:04:59.855Z,1.90
2022-12-12T18:07:10.516Z,1.70
2022-12-12T18:09:21.395Z,1.70
2022-12-12T18:11:32.122Z,1.70
2022-12-12T18:13:42.739Z,1.90
2022-12-12T18:15:58.174Z,1.50
2022-12-12T18:18:07.864Z,1.60
2022-12-12T18:20:17.974Z,1.60
2022-12-12T18:22:27.645Z,1.50
2022-12-12T18:24:37.092Z,2.10
2022-12-12T18:26:48.007Z,2.10
2022-12-12T18:29:00.143Z,2.10
2022-12-12T18:33:18.456Z,1.70
2022-12-12T18:35:28.985Z,1.80
2022-12-12T18:37:38.712Z,1.80
2022-12-12T18:39:48.608Z,1.90
2022-12-12T18:41:58.254Z,2.00
2022-12-12T18:44:10.769Z,2.20
2022-12-12T18:46:24.682Z,2.10
2022-12-12T18:48:36.346Z,2.80
2022-12-12T18:50:47.694Z,2.00
2022-12-12T18:52:57.999Z,2.30
2022-12-12T18:55:09.066Z,2.00
2022-12-12T18:57:18.659Z,2.20
2022-12-12T18:59:28.416Z,1.70
2022-12-12T19:01:40.087Z,1.80
2022-12-12T19:03:52.123Z,1.80
2022-12-12T19:06:05.001Z,2.10
2022-12-12T19:08:14.770Z,2.10
2022-12-12T19:10:25.207Z,2.10
2022-12-12T19:12:35.042Z,1.80
2022-12-12T19:15:16.265Z,2.40
2022-12-12T19:17:14.573Z,1.60
2022-12-12T19:19:24.430Z,2.00
2022-12-12T19:21:35.457Z,2.10
2022-12-12T19:23:45.965Z,2.10
2022-12-12T19:25:55.704Z,2.10
2022-12-12T19:28:07.185Z,2.40
2022-12-12T19:30:18.891Z,2.80
2022-12-12T19:32:28.712Z,2.50
2022-12-12T19:34:38.475Z,2.20
2022-12-12T19:36:48.490Z,3.20
2022-12-12T19:39:00.893Z,2.70
2022-12-12T19:41:11.980Z,3.20
2022-12-12T19:43:21.827Z,2.90
2022-12-12T19:45:31.857Z,3.30
2022-12-12T19:47:41.740Z,2.10
2022-12-12T19:49:53.091Z,2.30
2022-12-12T19:52:04.556Z,3.50
2022-12-12T19:54:21.181Z,3.30
2022-12-12T19:56:33.177Z,3.40
2022-12-12T19:58:43.207Z,2.90
2022-12-12T20:00:53.151Z,2.60
2022-12-12T20:03:03.130Z,2.40
2022-12-12T20:07:22.723Z,1.70
2022-12-12T20:09:33.400Z,1.60
2022-12-12T20:11:43.746Z,1.50
2022-12-12T20:13:55.637Z,1.70
2022-12-12T20:16:10.263Z,1.50
2022-12-12T20:18:20.119Z,1.90
2022-12-12T20:20:29.971Z,1.60
2022-12-12T20:22:40.053Z,2.10
2022-12-12T20:24:49.794Z,2.00
2022-12-12T20:27:00.009Z,1.50
2022-12-12T20:29:10.554Z,1.60
2022-12-12T20:31:21.914Z,1.80
2022-12-12T20:33:31.621Z,1.90
2022-12-12T20:35:41.435Z,1.50
2022-12-12T20:37:51.459Z,2.20
2022-12-12T20:40:02.056Z,1.40
2022-12-12T20:42:12.044Z,1.70
2022-12-12T20:44:22.837Z,1.50
2022-12-12T20:46:34.523Z,1.50
2022-12-12T20:48:44.803Z,1.70
2022-12-12T20:50:55.078Z,2.00
2022-12-12T20:53:05.536Z,1.80
2022-12-12T20:55:15.907Z,1.90
2022-12-12T20:57:25.798Z,1.90
2022-12-12T20:59:35.745Z,1.60
2022-12-12T21:01:47.643Z,1.60
2022-12-12T21:03:59.740Z,1.70
2022-12-12T21:06:16.570Z,1.60
2022-12-12T21:08:26.410Z,1.70
2022-12-12T21:10:36.156Z,1.90
2022-12-12T21:12:45.865Z,1.60
2022-12-12T21:15:01.069Z,1.90
2022-12-12T21:17:12.676Z,1.70
2022-12-12T21:19:23.811Z,1.80
2022-12-12T21:21:33.879Z,1.40
2022-12-12T21:23:44.472Z,1.50
2022-12-12T21:25:55.220Z,1.80
2022-12-12T21:28:05.308Z,2.00
2022-12-12T21:30:16.081Z,1.60
2022-12-12T21:32:25.896Z,1.80
2022-12-12T21:34:35.852Z,1.70
2022-12-12T21:36:46.270Z,1.90
2022-12-12T21:38:58.275Z,1.50
2022-12-12T21:41:10.042Z,1.50
2022-12-12T21:43:20.640Z,1.70
2022-12-12T21:45:30.631Z,1.90
2022-12-12T21:47:40.829Z,2.00
2022-12-12T21:49:50.539Z,1.70
2022-12-12T21:52:02.338Z,2.00
2022-12-12T21:54:13.805Z,1.80
2022-12-12T21:56:23.876Z,1.90
2022-12-12T21:58:33.914Z,1.70
2022-12-12T22:00:43.981Z,1.80
2022-12-12T22:02:53.612Z,2.30
2022-12-12T22:05:03.652Z,2.10
2022-12-12T22:07:14.551Z,1.80
2022-12-12T22:09:24.658Z,2.30
2022-12-12T22:11:41.817Z,2.50
2022-12-12T22:14:01.379Z,2.30
2022-12-12T22:16:15.542Z,1.80
2022-12-12T22:18:25.383Z,2.30
2022-12-12T22:20:37.259Z,3.70
2022-12-12T22:22:47.113Z,3.40
2022-12-12T22:24:57.444Z,4.10
2022-12-12T22:27:07.304Z,3.10
2022-12-12T22:29:18.754Z,2.30
2022-12-12T22:31:31.037Z,2.50
2022-12-12T22:33:41.349Z,2.90
2022-12-12T22:35:51.030Z,3.30
2022-12-12T22:38:01.250Z,3.20
2022-12-12T22:40:13.508Z,2.90
2022-12-12T22:42:23.375Z,2.60
2022-12-12T22:44:33.619Z,3.30
2022-12-12T22:46:44.260Z,3.10
2022-12-12T22:48:54.272Z,2.80
2022-12-12T22:51:12.669Z,3.20
2022-12-12T22:53:22.843Z,2.30
2022-12-12T22:55:35.145Z,2.50
2022-12-12T22:57:46.940Z,2.10
2022-12-12T22:59:56.404Z,2.40
2022-12-12T23:02:06.291Z,2.10
2022-12-12T23:04:16.889Z,1.90
2022-12-12T23:06:27.850Z,1.70
2022-12-12T23:08:37.831Z,1.80
2022-12-12T23:10:47.632Z,1.90
2022-12-12T23:12:57.720Z,2.10
2022-12-12T23:15:08.336Z,1.40
2022-12-12T23:17:17.972Z,2.10
2022-12-12T23:19:29.388Z,1.50
2022-12-12T23:21:39.622Z,2.00
2022-12-12T23:23:49.949Z,1.80
2022-12-12T23:26:02.660Z,1.60
2022-12-12T23:28:14.041Z,1.50
2022-12-12T23:30:24.059Z,1.60
2022-12-12T23:32:34.654Z,1.40
2022-12-12T23:34:44.352Z,1.80
2022-12-12T23:36:55.357Z,1.30
2022-12-12T23:39:07.728Z,1.70
2022-12-12T23:41:18.607Z,1.70
2022-12-12T23:43:29.824Z,1.60
2022-12-12T23:45:40.448Z,1.70
2022-12-12T23:47:50.123Z,2.40
2022-12-12T23:50:00.405Z,1.40
2022-12-12T23:52:12.692Z,1.50
2022-12-12T23:54:24.591Z,1.90
2022-12-12T23:56:35.061Z,2.20
2022-12-12T23:58:45.179Z,2.10
